createdAt,value
2018-08-03T00:01:52.912Z,23.59
2018-08-03T00:04:23.918Z,23.60
2018-08-03T00:06:53.362Z,23.61
2018-08-03T00:09:23.686Z,23.59
2018-08-03T00:11:53.487Z,23.53
2018-08-03T00:14:23.359Z,23.52
2018-08-03T00:16:53.219Z,23.51
2018-08-03T00:19:23.376Z,23.52
2018-08-03T00:21:53.254Z,23.44
2018-08-03T00:24:23.147Z,23.24
2018-08-03T00:26:53.037Z,23.42
2018-08-03T00:29:22.901Z,23.41
2018-08-03T00:31:52.780Z,23.42
2018-08-03T00:34:22.614Z,23.42
2018-08-03T00:36:52.502Z,23.43
2018-08-03T00:39:22.259Z,23.34
2018-08-03T00:41:52.130Z,23.31
2018-08-03T00:44:21.854Z,23.30
2018-08-03T00:46:51.739Z,23.31
2018-08-03T00:49:21.562Z,23.28
2018-08-03T00:51:51.502Z,23.23
2018-08-03T00:54:21.330Z,23.26
2018-08-03T00:56:51.214Z,23.19
2018-08-03T00:59:22.778Z,23.12
2018-08-03T01:01:53.454Z,23.03
2018-08-03T01:04:23.339Z,23.06
2018-08-03T01:06:53.178Z,23.04
2018-08-03T01:09:23.159Z,23.02
2018-08-03T01:11:53.090Z,22.98
2018-08-03T01:14:24.708Z,22.97
2018-08-03T01:16:55.449Z,22.94
2018-08-03T01:19:25.536Z,22.97
2018-08-03T01:21:55.826Z,22.99
2018-08-03T01:24:26.214Z,22.88
2018-08-03T01:26:56.177Z,22.95
2018-08-03T01:29:26.099Z,22.92
2018-08-03T01:31:56.040Z,22.99
2018-08-03T01:34:27.038Z,22.94
2018-08-03T01:37:09.436Z,22.90
2018-08-03T01:39:39.322Z,22.90
2018-08-03T01:42:09.229Z,22.87
2018-08-03T01:44:39.144Z,22.80
2018-08-03T01:47:08.955Z,22.81
2018-08-03T01:49:38.738Z,22.78
2018-08-03T01:52:08.643Z,22.81
2018-08-03T01:54:39.112Z,22.83
2018-08-03T01:57:09.116Z,22.81
2018-08-03T01:59:38.901Z,22.76
2018-08-03T02:02:09.096Z,22.77
2018-08-03T02:04:38.857Z,22.73
2018-08-03T02:07:42.922Z,22.79
2018-08-03T02:10:17.601Z,22.77
2018-08-03T02:12:47.935Z,22.80
2018-08-03T02:15:17.737Z,22.76
2018-08-03T02:17:47.517Z,22.76
2018-08-03T02:20:17.345Z,22.70
2018-08-03T02:22:49.974Z,22.67
2018-08-03T02:25:20.985Z,22.65
2018-08-03T02:27:50.889Z,22.65
2018-08-03T02:30:25.282Z,22.58
2018-08-03T02:32:55.213Z,22.61
2018-08-03T02:35:25.034Z,22.57
2018-08-03T02:37:54.889Z,22.48
2018-08-03T02:40:24.917Z,22.42
2018-08-03T02:42:55.292Z,22.45
2018-08-03T02:45:25.773Z,22.43
2018-08-03T02:47:55.547Z,22.46
2018-08-03T02:50:26.231Z,22.48
2018-08-03T02:52:57.031Z,22.39
2018-08-03T02:55:27.625Z,22.48
2018-08-03T02:58:05.851Z,22.47
2018-08-03T03:00:40.818Z,22.45
2018-08-03T03:03:14.959Z,22.41
2018-08-03T03:05:48.084Z,22.43
2018-08-03T03:08:19.773Z,22.41
2018-08-03T03:10:49.573Z,22.45
2018-08-03T03:13:19.379Z,22.39
2018-08-03T03:15:49.789Z,22.38
2018-08-03T03:18:21.447Z,22.36
2018-08-03T03:20:54.322Z,22.38
2018-08-03T03:23:24.281Z,22.36
2018-08-03T03:25:54.053Z,22.36
2018-08-03T03:28:23.921Z,22.38
2018-08-03T03:30:53.890Z,22.38
2018-08-03T03:33:23.748Z,22.37
2018-08-03T03:35:53.464Z,22.32
2018-08-03T03:38:23.344Z,22.34
2018-08-03T03:40:52.862Z,22.36
2018-08-03T03:43:22.664Z,22.36
2018-08-03T03:45:52.124Z,22.38
2018-08-03T03:48:21.928Z,22.39
2018-08-03T03:50:53.729Z,22.45
2018-08-03T03:53:23.808Z,22.47
2018-08-03T03:55:53.228Z,22.49
2018-08-03T03:58:22.733Z,22.55
2018-08-03T04:00:52.402Z,22.62
2018-08-03T04:03:22.309Z,22.67
2018-08-03T04:05:52.071Z,22.71
2018-08-03T04:08:21.889Z,22.72
2018-08-03T04:10:51.711Z,22.79
2018-08-03T04:13:22.336Z,22.80
2018-08-03T04:15:52.036Z,22.80
2018-08-03T04:18:22.444Z,22.92
2018-08-03T04:20:53.227Z,22.90
2018-08-03T04:23:23.000Z,22.89
2018-08-03T04:25:52.837Z,22.94
2018-08-03T04:28:22.616Z,22.97
2018-08-03T04:30:52.392Z,22.93
2018-08-03T04:33:22.168Z,22.89
2018-08-03T04:35:51.944Z,22.88
2018-08-03T04:38:21.702Z,22.96
2018-08-03T04:40:51.530Z,22.98
2018-08-03T04:43:21.334Z,22.95
2018-08-03T04:45:51.220Z,22.89
2018-08-03T04:48:21.448Z,22.82
2018-08-03T04:50:51.446Z,22.82
2018-08-03T04:53:21.200Z,22.81
2018-08-03T04:55:50.990Z,22.82
2018-08-03T04:58:20.753Z,22.83
2018-08-03T05:00:50.987Z,22.85
2018-08-03T05:03:20.785Z,22.90
2018-08-03T05:05:50.589Z,22.94
2018-08-03T05:08:21.148Z,22.89
2018-08-03T05:10:51.057Z,23.01
2018-08-03T05:13:20.992Z,22.97
2018-08-03T05:15:50.950Z,23.10
2018-08-03T05:18:21.016Z,23.19
2018-08-03T05:20:50.928Z,23.20
2018-08-03T05:23:20.956Z,23.19
2018-08-03T05:25:50.832Z,23.21
2018-08-03T05:28:20.879Z,23.53
2018-08-03T05:30:51.139Z,23.76
2018-08-03T05:33:21.077Z,23.93
2018-08-03T05:35:50.936Z,24.34
2018-08-03T05:38:20.805Z,24.48
2018-08-03T05:40:50.665Z,24.41
2018-08-03T05:43:20.536Z,24.54
2018-08-03T05:45:50.336Z,24.40
2018-08-03T05:48:20.888Z,24.56
2018-08-03T05:50:50.785Z,25.02
2018-08-03T05:53:20.569Z,25.59
2018-08-03T05:55:50.285Z,25.89
2018-08-03T05:58:20.064Z,26.22
2018-08-03T06:00:49.852Z,26.23
2018-08-03T06:03:19.590Z,26.11
2018-08-03T06:05:49.467Z,26.59
2018-08-03T06:08:19.856Z,26.97
2018-08-03T06:10:49.659Z,26.31
2018-08-03T06:13:19.525Z,26.72
2018-08-03T06:15:49.280Z,26.82
2018-08-03T06:18:19.176Z,27.23
2018-08-03T06:20:49.044Z,27.55
2018-08-03T06:23:18.875Z,27.11
2018-08-03T06:25:48.831Z,27.41
2018-08-03T06:28:18.691Z,27.55
2018-08-03T06:30:48.604Z,27.54
2018-08-03T06:33:18.446Z,27.28
2018-08-03T06:35:48.333Z,27.17
2018-08-03T06:38:18.206Z,26.82
2018-08-03T06:40:48.060Z,26.43
2018-08-03T06:43:17.850Z,26.62
2018-08-03T06:45:47.683Z,26.59
2018-08-03T06:48:17.532Z,26.69
2018-08-03T06:50:47.269Z,26.33
2018-08-03T06:53:17.224Z,26.34
2018-08-03T06:55:47.056Z,26.32
2018-08-03T06:58:16.767Z,26.49
2018-08-03T07:00:46.686Z,26.82
2018-08-03T07:03:16.614Z,26.70
2018-08-03T07:05:46.437Z,26.80
2018-08-03T07:08:16.468Z,26.98
2018-08-03T07:10:46.266Z,26.92
2018-08-03T07:13:16.283Z,26.86
2018-08-03T07:15:46.119Z,26.92
2018-08-03T07:18:15.967Z,26.75
2018-08-03T07:20:45.987Z,27.03
2018-08-03T07:23:15.835Z,27.14
2018-08-03T07:25:45.882Z,27.26
2018-08-03T07:28:15.704Z,26.87
2018-08-03T07:30:45.567Z,27.28
2018-08-03T07:33:15.451Z,27.68
2018-08-03T07:35:45.421Z,27.82
2018-08-03T07:38:15.474Z,27.71
2018-08-03T07:40:45.505Z,27.68
2018-08-03T07:43:15.614Z,27.87
2018-08-03T07:45:45.587Z,27.76
2018-08-03T07:48:15.398Z,27.77
2018-08-03T07:50:45.238Z,28.10
2018-08-03T07:53:15.195Z,27.66
2018-08-03T07:55:45.163Z,27.31
2018-08-03T07:58:15.071Z,27.48
2018-08-03T08:00:45.063Z,27.46
2018-08-03T08:03:15.068Z,27.55
2018-08-03T08:05:44.904Z,27.74
2018-08-03T08:08:14.772Z,27.55
2018-08-03T08:10:45.819Z,27.91
2018-08-03T08:13:16.082Z,27.81
2018-08-03T08:15:46.156Z,27.62
2018-08-03T08:18:16.760Z,27.84
2018-08-03T08:20:46.812Z,27.74
2018-08-03T08:23:16.940Z,28.11
2018-08-03T08:25:46.880Z,28.09
2018-08-03T08:28:16.821Z,27.91
2018-08-03T08:30:56.926Z,28.03
2018-08-03T08:33:29.875Z,27.95
2018-08-03T08:36:01.570Z,27.74
2018-08-03T08:38:32.627Z,27.97
2018-08-03T08:41:02.876Z,28.16
2018-08-03T08:43:44.374Z,28.14
2018-08-03T08:46:15.011Z,28.11
2018-08-03T08:48:45.222Z,28.46
2018-08-03T08:51:15.494Z,28.56
2018-08-03T08:53:45.650Z,28.63
2018-08-03T08:56:15.817Z,28.54
2018-08-03T08:58:45.745Z,29.35
2018-08-03T09:01:16.865Z,29.84
2018-08-03T09:03:47.116Z,29.74
2018-08-03T09:06:17.107Z,29.08
2018-08-03T09:08:47.279Z,29.18
2018-08-03T09:11:17.243Z,28.98
2018-08-03T09:13:47.523Z,28.97
2018-08-03T09:26:09.719Z,29.15
2018-08-03T09:28:40.501Z,29.55
2018-08-03T09:31:11.303Z,29.42
2018-08-03T09:33:44.909Z,29.57
2018-08-03T09:36:17.179Z,29.20
2018-08-03T09:38:48.352Z,29.33
2018-08-03T09:41:22.704Z,29.50
2018-08-03T09:43:56.672Z,29.43
2018-08-03T09:46:31.117Z,29.39
2018-08-03T09:49:02.099Z,29.59
2018-08-03T09:51:33.679Z,29.59
2018-08-03T09:54:05.743Z,29.74
2018-08-03T09:56:37.411Z,29.55
2018-08-03T09:59:12.672Z,29.70
2018-08-03T10:01:47.608Z,29.82
2018-08-03T10:04:18.842Z,29.70
2018-08-03T10:06:54.271Z,29.63
2018-08-03T10:09:26.786Z,29.63
2018-08-03T10:11:58.773Z,29.62
2018-08-03T10:14:31.404Z,29.74
2018-08-03T10:17:06.628Z,29.80
2018-08-03T10:19:37.787Z,30.06
2018-08-03T10:22:10.406Z,30.04
2018-08-03T10:24:44.209Z,29.80
2018-08-03T10:27:19.255Z,29.74
2018-08-03T10:29:51.807Z,29.89
2018-08-03T10:32:28.370Z,29.97
2018-08-03T10:35:09.740Z,30.11
2018-08-03T10:37:42.972Z,30.18
2018-08-03T10:40:13.499Z,30.31
2018-08-03T10:42:45.129Z,30.37
2018-08-03T10:45:18.606Z,30.48
2018-08-03T10:47:49.853Z,30.67
2018-08-03T10:50:21.637Z,31.02
2018-08-03T10:52:53.625Z,31.13
2018-08-03T10:55:33.719Z,31.13
2018-08-03T10:58:04.345Z,31.19
2018-08-03T11:00:42.293Z,31.20
2018-08-03T11:03:16.429Z,31.46
2018-08-03T11:05:48.674Z,31.37
2018-08-03T11:08:19.744Z,31.08
2018-08-03T11:10:55.128Z,30.83
2018-08-03T11:13:26.471Z,31.19
2018-08-03T11:16:00.508Z,31.08
2018-08-03T11:18:32.337Z,31.16
2018-08-03T11:21:10.197Z,31.08
2018-08-03T11:23:48.489Z,30.94
2018-08-03T11:26:19.198Z,31.10
2018-08-03T11:28:49.989Z,31.42
2018-08-03T11:31:20.035Z,31.56
2018-08-03T11:33:50.453Z,31.45
2018-08-03T11:36:23.320Z,31.20
2018-08-03T11:38:54.183Z,31.24
2018-08-03T11:41:25.433Z,31.48
2018-08-03T11:43:57.746Z,31.28
2018-08-03T11:46:27.904Z,31.59
2018-08-03T11:48:59.947Z,31.48
2018-08-03T11:51:32.985Z,31.65
2018-08-03T11:54:03.492Z,31.84
2018-08-03T11:56:33.515Z,31.46
2018-08-03T11:59:03.648Z,31.23
2018-08-03T12:01:33.721Z,31.50
2018-08-03T12:04:04.054Z,31.56
2018-08-03T12:06:34.169Z,31.68
2018-08-03T12:09:05.708Z,31.71
2018-08-03T12:11:36.853Z,31.60
2018-08-03T12:14:07.463Z,31.40
2018-08-03T12:16:37.288Z,31.54
2018-08-03T12:19:07.231Z,31.49
2018-08-03T12:21:37.074Z,31.44
2018-08-03T12:24:06.985Z,31.60
2018-08-03T12:26:37.611Z,31.55
2018-08-03T12:29:08.214Z,31.44
2018-08-03T12:31:38.940Z,31.52
2018-08-03T12:34:09.230Z,31.91
2018-08-03T12:36:39.169Z,32.07
2018-08-03T12:39:11.129Z,32.23
2018-08-03T12:41:42.158Z,32.13
2018-08-03T12:44:14.360Z,32.14
2018-08-03T12:46:45.680Z,31.99
2018-08-03T12:49:16.699Z,31.79
2018-08-03T12:51:48.550Z,32.09
2018-08-03T12:54:18.877Z,32.26
2018-08-03T12:56:51.154Z,32.40
2018-08-03T12:59:20.758Z,32.47
2018-08-03T13:01:50.896Z,32.52
2018-08-03T13:04:20.860Z,32.64
2018-08-03T13:06:51.525Z,32.27
2018-08-03T13:09:21.942Z,32.61
2018-08-03T13:11:51.964Z,33.08
2018-08-03T13:14:21.876Z,32.84
2018-08-03T13:16:52.246Z,32.84
2018-08-03T13:19:23.572Z,32.99
2018-08-03T13:21:53.976Z,32.91
2018-08-03T13:24:25.381Z,32.74
2018-08-03T13:26:55.441Z,32.69
2018-08-03T13:29:25.675Z,32.77
2018-08-03T13:31:55.483Z,33.04
2018-08-03T13:34:27.204Z,32.73
2018-08-03T13:36:57.221Z,32.66
2018-08-03T13:39:27.226Z,32.76
2018-08-03T13:41:58.337Z,32.67
2018-08-03T13:44:33.152Z,32.21
2018-08-03T13:47:03.431Z,32.36
2018-08-03T13:49:33.540Z,32.31
2018-08-03T13:52:03.516Z,32.25
2018-08-03T13:54:33.880Z,32.44
2018-08-03T13:57:05.065Z,32.26
2018-08-03T13:59:35.492Z,32.43
2018-08-03T14:02:18.339Z,32.45
2018-08-03T14:04:48.477Z,32.50
2018-08-03T14:07:18.634Z,32.46
2018-08-03T14:09:48.656Z,32.11
2018-08-03T14:12:19.400Z,31.91
2018-08-03T14:17:46.012Z,32.30
2018-08-03T14:20:16.772Z,32.29
2018-08-03T14:22:47.264Z,32.27
2018-08-03T14:25:17.685Z,32.48
2018-08-03T14:27:48.642Z,32.67
2018-08-03T14:30:19.593Z,32.52
2018-08-03T14:32:50.237Z,32.64
2018-08-03T14:35:20.157Z,32.76
2018-08-03T14:37:51.333Z,32.73
2018-08-03T14:40:21.914Z,32.74
2018-08-03T14:42:51.939Z,32.77
2018-08-03T14:45:22.741Z,32.71
2018-08-03T14:47:52.957Z,32.71
2018-08-03T14:50:25.012Z,32.62
2018-08-03T14:52:54.850Z,32.71
2018-08-03T14:55:25.008Z,32.72
2018-08-03T14:57:55.336Z,32.70
2018-08-03T15:00:25.368Z,32.64
2018-08-03T15:03:01.176Z,32.57
2018-08-03T15:05:32.937Z,32.68
2018-08-03T15:08:03.165Z,32.66
2018-08-03T15:10:49.197Z,32.55
2018-08-03T15:13:19.625Z,32.57
2018-08-03T15:15:53.157Z,32.62
2018-08-03T15:18:23.087Z,32.65
2018-08-03T15:20:55.515Z,32.60
2018-08-03T15:23:26.713Z,32.65
2018-08-03T15:25:58.598Z,32.73
2018-08-03T15:28:29.718Z,32.63
2018-08-03T15:31:00.226Z,32.59
2018-08-03T15:33:30.911Z,32.60
2018-08-03T15:36:01.116Z,32.65
2018-08-03T15:38:31.094Z,32.61
2018-08-03T15:41:01.176Z,32.69
2018-08-03T15:43:30.954Z,32.65
2018-08-03T15:46:01.223Z,32.68
2018-08-03T15:48:31.236Z,32.73
2018-08-03T15:51:01.139Z,32.73
2018-08-03T15:53:31.824Z,32.67
2018-08-03T15:56:02.429Z,32.59
2018-08-03T15:58:32.310Z,32.65
2018-08-03T16:01:02.115Z,32.55
2018-08-03T16:03:32.549Z,32.54
2018-08-03T16:06:02.558Z,32.61
2018-08-03T16:08:32.427Z,32.57
2018-08-03T16:11:02.295Z,32.51
2018-08-03T16:13:32.799Z,32.50
2018-08-03T16:16:03.463Z,32.65
2018-08-03T16:18:33.310Z,32.63
2018-08-03T16:21:03.249Z,32.66
2018-08-03T16:23:33.089Z,32.67
2018-08-03T16:26:02.867Z,32.77
2018-08-03T16:28:32.713Z,32.77
2018-08-03T16:31:04.472Z,32.79
2018-08-03T16:33:34.331Z,32.87
2018-08-03T16:36:04.399Z,32.93
2018-08-03T16:38:34.219Z,32.87
2018-08-03T16:41:03.955Z,32.83
2018-08-03T16:43:33.835Z,32.81
2018-08-03T16:46:11.808Z,32.83
2018-08-03T16:48:41.943Z,32.83
2018-08-03T16:51:12.356Z,32.98
2018-08-03T16:53:42.577Z,32.92
2018-08-03T16:56:12.511Z,32.68
2018-08-03T16:58:42.587Z,32.73
2018-08-03T17:01:12.464Z,32.69
2018-08-03T17:03:42.488Z,32.81
2018-08-03T17:06:13.755Z,32.82
2018-08-03T17:08:43.787Z,32.76
2018-08-03T17:11:13.586Z,32.62
2018-08-03T17:13:43.683Z,32.67
2018-08-03T17:16:13.630Z,32.72
2018-08-03T17:18:43.655Z,32.72
2018-08-03T17:21:13.606Z,32.66
2018-08-03T17:23:43.377Z,32.54
2018-08-03T17:26:13.703Z,32.47
2018-08-03T17:28:43.494Z,32.59
2018-08-03T17:31:14.243Z,32.34
2018-08-03T17:33:46.245Z,32.26
2018-08-03T17:36:16.133Z,32.32
2018-08-03T17:38:46.044Z,32.17
2018-08-03T17:41:15.850Z,32.06
2018-08-03T17:43:45.764Z,31.99
2018-08-03T17:46:16.732Z,32.00
2018-08-03T17:48:47.087Z,32.00
2018-08-03T17:51:17.073Z,31.88
2018-08-03T17:53:47.450Z,31.76
2018-08-03T17:56:17.425Z,31.69
2018-08-03T17:58:47.205Z,31.66
2018-08-03T18:01:17.476Z,31.57
2018-08-03T18:03:47.387Z,31.50
2018-08-03T18:06:17.378Z,31.45
2018-08-03T18:08:47.212Z,31.36
2018-08-03T18:11:16.971Z,31.15
2018-08-03T18:13:46.991Z,31.05
2018-08-03T18:16:16.966Z,30.93
2018-08-03T18:18:46.760Z,30.74
2018-08-03T18:21:16.533Z,30.58
2018-08-03T18:23:46.488Z,30.44
2018-08-03T18:26:16.321Z,30.39
2018-08-03T18:28:46.821Z,30.28
2018-08-03T18:31:16.639Z,30.11
2018-08-03T18:33:46.394Z,30.01
2018-08-03T18:36:16.254Z,29.92
2018-08-03T18:38:45.991Z,29.81
2018-08-03T18:41:15.856Z,29.66
2018-08-03T18:43:45.750Z,29.57
2018-08-03T18:46:16.024Z,29.50
2018-08-03T18:48:46.316Z,29.49
2018-08-03T18:51:16.730Z,29.42
2018-08-03T18:53:48.066Z,29.24
2018-08-03T18:56:18.301Z,29.18
2018-08-03T18:58:48.729Z,29.20
2018-08-03T19:01:19.982Z,29.18
2018-08-03T19:03:50.367Z,29.13
2018-08-03T19:06:20.606Z,29.08
2018-08-03T19:08:51.082Z,29.08
2018-08-03T19:11:21.685Z,29.04
2018-08-03T19:13:52.102Z,28.95
2018-08-03T19:16:22.252Z,28.90
2018-08-03T19:18:52.838Z,28.75
2018-08-03T19:21:23.132Z,28.71
2018-08-03T19:23:53.389Z,28.76
2018-08-03T19:26:23.758Z,28.74
2018-08-03T19:28:55.257Z,28.55
2018-08-03T19:31:25.754Z,28.39
2018-08-03T19:33:56.109Z,28.38
2018-08-03T19:36:26.216Z,28.45
2018-08-03T19:38:56.382Z,28.18
2018-08-03T19:41:27.139Z,28.03
2018-08-03T19:43:57.473Z,27.87
2018-08-03T19:46:27.908Z,27.71
2018-08-03T19:48:58.079Z,27.79
2018-08-03T19:51:28.517Z,27.69
2018-08-03T19:53:58.790Z,27.70
2018-08-03T19:56:29.152Z,27.61
2018-08-03T19:58:59.523Z,27.49
2018-08-03T20:01:30.730Z,27.43
2018-08-03T20:06:37.818Z,27.37
2018-08-03T20:09:15.637Z,27.37
2018-08-03T20:11:49.066Z,27.25
2018-08-03T20:14:19.717Z,27.14
2018-08-03T20:16:50.173Z,27.05
2018-08-03T20:19:20.729Z,26.83
2018-08-03T20:21:51.266Z,26.96
2018-08-03T20:24:21.715Z,26.97
2018-08-03T20:26:51.905Z,26.97
2018-08-03T20:29:22.166Z,26.83
2018-08-03T20:31:52.574Z,26.87
2018-08-03T20:34:23.886Z,26.77
2018-08-03T20:36:54.323Z,26.69
2018-08-03T20:39:24.746Z,26.55
2018-08-03T20:41:55.097Z,26.38
2018-08-03T20:44:25.417Z,26.33
2018-08-03T20:46:55.953Z,26.71
2018-08-03T20:49:26.364Z,26.70
2018-08-03T20:51:56.777Z,26.62
2018-08-03T20:54:27.164Z,26.65
2018-08-03T20:56:57.035Z,26.69
2018-08-03T20:59:28.752Z,26.60
2018-08-03T21:01:58.562Z,26.44
2018-08-03T21:04:28.301Z,26.41
2018-08-03T21:06:57.694Z,26.34
2018-08-03T21:09:28.424Z,26.42
2018-08-03T21:11:58.330Z,26.44
2018-08-03T21:14:28.028Z,26.44
2018-08-03T21:16:57.755Z,26.24
2018-08-03T21:19:27.585Z,26.33
2018-08-03T21:21:57.353Z,26.27
2018-08-03T21:24:27.267Z,26.29
2018-08-03T21:26:57.093Z,26.16
2018-08-03T21:29:26.969Z,26.11
2018-08-03T21:31:56.771Z,26.15
2018-08-03T21:34:26.613Z,26.11
2018-08-03T21:36:56.398Z,26.14
2018-08-03T21:39:26.144Z,26.03
2018-08-03T21:41:55.904Z,26.23
2018-08-03T21:44:26.803Z,26.12
2018-08-03T21:46:56.533Z,26.21
2018-08-03T21:49:25.889Z,26.21
2018-08-03T21:51:55.759Z,26.22
2018-08-03T21:54:25.665Z,26.05
2018-08-03T21:56:55.433Z,26.06
2018-08-03T21:59:25.210Z,26.12
2018-08-03T22:01:55.082Z,26.12
2018-08-03T22:04:24.829Z,26.00
2018-08-03T22:06:54.633Z,26.05
2018-08-03T22:09:24.418Z,26.08
2018-08-03T22:11:54.179Z,26.12
2018-08-03T22:14:23.908Z,26.13
2018-08-03T22:16:53.681Z,26.32
2018-08-03T22:19:23.460Z,26.25
2018-08-03T22:21:53.229Z,26.29
2018-08-03T22:24:23.069Z,26.29
2018-08-03T22:26:53.009Z,26.19
2018-08-03T22:29:22.768Z,26.23
2018-08-03T22:31:52.503Z,26.16
2018-08-03T22:34:22.300Z,26.11
2018-08-03T22:36:52.253Z,26.05
2018-08-03T22:39:21.612Z,26.17
2018-08-03T22:41:51.372Z,26.08
2018-08-03T22:44:21.236Z,26.07
2018-08-03T22:46:51.029Z,26.03
2018-08-03T22:49:20.759Z,25.92
2018-08-03T22:51:50.560Z,25.85
2018-08-03T22:54:20.255Z,25.74
2018-08-03T22:56:50.053Z,25.18
2018-08-03T22:59:19.804Z,25.72
2018-08-03T23:01:50.643Z,25.50
2018-08-03T23:04:21.091Z,25.36
2018-08-03T23:06:51.043Z,25.51
2018-08-03T23:09:20.939Z,25.51
2018-08-03T23:11:50.781Z,25.51
2018-08-03T23:14:20.589Z,25.23
2018-08-03T23:16:50.436Z,25.11
2018-08-03T23:19:20.170Z,25.12
2018-08-03T23:21:50.127Z,25.12
2018-08-03T23:24:19.903Z,25.07
2018-08-03T23:26:49.650Z,24.96
2018-08-03T23:29:19.472Z,24.85
2018-08-03T23:31:49.239Z,25.12
2018-08-03T23:34:19.128Z,25.17
2018-08-03T23:36:48.926Z,25.06
2018-08-03T23:39:18.743Z,24.95
2018-08-03T23:41:48.638Z,24.90
2018-08-03T23:44:18.434Z,24.91
2018-08-03T23:46:48.260Z,25.04
2018-08-03T23:49:18.208Z,25.04
2018-08-03T23:51:48.083Z,25.04
2018-08-03T23:54:17.936Z,25.18
2018-08-03T23:56:47.784Z,25.15
2018-08-03T23:59:17.598Z,25.16
